Matucana, Peru
Current Conditions -  °F | °C
As of 12:00 PM on Friday 28 Nov 2014 (Local Time) from SPIM Reporting Station
Overcast Overcast  
Wind Chill: 21°   Ceiling: 1500
Heat Index: 21°   Visibility: 6mi
Dew Point: 17°   Wind: 8mph
Humidity: 78%   Direction: 230°SW
Pressure: 29.88"   Gusts: NA
Location:  11.85°S, 76.4°W
Report Text: SPIM 281700Z 23007KT 200V260 9999 SCT012 OVC015 21/17 Q1012 NOSIG RMK BIRD HAZARD RWY 15 PP000
Loading
Personal Weather Stations






























Interactive Weather Map New forecast layout! Learn more

10-Day Weather Forecast

Advertisements
Track Severe Weather on mobile